Impacts METAR Board
IDs:

KSRQ - Sarasota-Bradenton I, FL, US

Updated at: 2200 UTC 30 Jun 2022
Potential Impact None Slight Moderate High
Time 30/10Z 30/11Z 30/12Z 30/13Z 30/14Z 30/15Z 30/16Z 30/17Z 30/18Z 30/19Z 30/20Z 30/21Z 30/22Z
Temp76 76 78 81 84 87 89 90 90 90 91 86 87
Dewpt73 74 75 75 75 74 72 73 76 77 75 72 74
Altim30.08 30.09 30.10 30.12 30.12 30.12 30.11 30.10 30.09 30.06 30.03 30.06 30.04
VIS10 10 10 10 10 10 10 10 10 10 10 10 10
CIG-- -- -- -- -- -- -- 50 -- -- -- -- 100
CoverCLRCLRCLRCLRCLRCLRCLRBKNCLRFEWCLRSCTOVC
FltCatVFRVFRVFRVFRVFRVFRVFRVFRVFRVFRVFRVFRVFR
WX--------------------VCTS----
WDir10080110100100130150290290270290150260
WSpd5 4 5 5 3 3 4 4 9 10 13 6 6
WGst-- -- -- -- -- -- -- -- -- -- -- -- --
Raw hourly METARs
KSRQ 300953Z 10005KT 10SM CLR 24/23 A3008 RMK AO2 SLP185 T02440228
KSRQ 301053Z 08004KT 10SM CLR 24/23 A3009 RMK AO2 SLP189 T02440233
KSRQ 301153Z 11005KT 10SM CLR 26/24 A3010 RMK AO2 SLP192 70040 T02560239 10256 20244 53008
KSRQ 301253Z 10005KT 10SM CLR 27/24 A3012 RMK AO2 SLP197 T02720239
KSRQ 301353Z 10003KT 10SM CLR 29/24 A3012 RMK AO2 SLP199 T02890239
KSRQ 301453Z 13003KT 10SM CLR 31/23 A3012 RMK AO2 SLP199 T03060233 50006
KSRQ 301553Z 15004KT 10SM CLR 32/22 A3011 RMK AO2 SLP197 T03170222
KSRQ 301653Z 29004KT 10SM SCT038 BKN050 32/23 A3010 RMK AO2 SLP192 T03220228
KSRQ 301753Z 29009KT 10SM CLR 32/24 A3009 RMK AO2 LTG DSNT N AND SE SLP187 T03220244 10328 20256 58012
KSRQ 301853Z 27010KT 10SM FEW090 32/25 A3006 RMK AO2 SLP179 T03220250
KSRQ 301953Z 29013KT 10SM VCTS CLR 33/24 A3003 RMK AO2 LTG DSNT NE SLP169 T03280239
KSRQ 302053Z 15006KT 10SM SCT042 30/22 A3006 RMK AO2 LTG DSNT N-SE SLP178 T03000222 55001
KSRQ 302153Z 26006KT 10SM OVC100 31/23 A3004 RMK AO2 LTG DSNT N SLP171 T03060233



Page loaded:  22:27 UTC  |   03:27 PM Pacific  |   04:27 PM Mountain  |   05:27 PM Central  |   06:27 PM Eastern

 

ADVISORIES

FORECASTS

FORECASTS

OBSERVATIONS

USER TOOLS

ABOUT US